createdAt,value
2023-02-25T00:02:03.542Z,99768.34
2023-02-25T00:04:32.985Z,99767.29
2023-02-25T00:07:22.959Z,99768.32
2023-02-25T00:09:54.474Z,99762.38
2023-02-25T00:12:24.388Z,99762.40
2023-02-25T00:14:52.969Z,99758.15
2023-02-25T00:17:21.404Z,99754.73
2023-02-25T00:19:50.489Z,99749.46
2023-02-25T00:22:21.789Z,99745.90
2023-02-25T00:24:56.366Z,99743.52
2023-02-25T00:27:24.932Z,99742.98
2023-02-25T00:29:54.378Z,99736.48
2023-02-25T00:32:23.199Z,99730.68
2023-02-25T00:34:52.467Z,99730.98
2023-02-25T00:37:21.600Z,99727.86
2023-02-25T00:39:50.066Z,99727.16
2023-02-25T00:42:18.789Z,99728.69
2023-02-25T00:44:49.701Z,99722.20
2023-02-25T00:47:19.306Z,99718.97
2023-02-25T00:49:53.252Z,99721.55
2023-02-25T00:52:22.097Z,99704.73
2023-02-25T00:54:50.614Z,99700.65
2023-02-25T00:57:20.378Z,99705.10
2023-02-25T00:59:48.773Z,99692.70
2023-02-25T01:02:17.427Z,99687.77
2023-02-25T01:04:45.846Z,99681.63
2023-02-25T01:07:14.461Z,99683.30
2023-02-25T01:09:43.133Z,99678.02
2023-02-25T01:12:11.829Z,99681.05
2023-02-25T01:14:41.340Z,99684.61
2023-02-25T01:17:10.032Z,99678.64
2023-02-25T01:19:41.913Z,99681.98
2023-02-25T01:22:10.621Z,99670.89
2023-02-25T01:24:39.397Z,99667.48
2023-02-25T01:27:08.976Z,99660.30
2023-02-25T01:29:40.568Z,99655.98
2023-02-25T01:32:12.196Z,99656.28
2023-02-25T01:34:41.205Z,99655.25
2023-02-25T01:37:12.101Z,99646.94
2023-02-25T01:39:41.774Z,99648.48
2023-02-25T01:42:15.262Z,99645.57
2023-02-25T01:45:22.442Z,99642.69
2023-02-25T01:47:52.751Z,99635.69
2023-02-25T01:50:24.088Z,99625.30
2023-02-25T01:52:52.523Z,99619.31
2023-02-25T01:55:20.961Z,99616.58
2023-02-25T01:57:50.548Z,99616.08
2023-02-25T02:00:19.064Z,99615.60
2023-02-25T02:02:48.051Z,99616.29
2023-02-25T02:05:16.331Z,99614.42
2023-02-25T02:07:44.774Z,99614.30
2023-02-25T02:10:13.220Z,99609.92
2023-02-25T02:12:43.277Z,99607.61
2023-02-25T02:15:14.358Z,99601.19
2023-02-25T02:18:00.552Z,99600.19
2023-02-25T02:20:45.095Z,99603.15
2023-02-25T02:23:23.068Z,99605.06
2023-02-25T02:26:27.599Z,99608.45
2023-02-25T02:29:36.370Z,99601.97
2023-02-25T02:32:19.410Z,99603.30
2023-02-25T02:35:06.516Z,99595.95
2023-02-25T02:37:54.445Z,99603.74
2023-02-25T02:40:32.391Z,99595.22
2023-02-25T02:43:01.584Z,99596.73
2023-02-25T02:45:49.464Z,99594.36
2023-02-25T02:48:22.796Z,99591.83
2023-02-25T02:51:15.041Z,99583.16
2023-02-25T02:53:47.432Z,99578.23
2023-02-25T02:56:17.399Z,99575.71
2023-02-25T02:58:59.226Z,99570.45
2023-02-25T03:01:33.022Z,99568.80
2023-02-25T03:04:06.177Z,99571.91
2023-02-25T03:06:42.138Z,99569.07
2023-02-25T03:09:13.309Z,99564.39
2023-02-25T03:11:43.749Z,99561.55
2023-02-25T03:14:13.814Z,99563.65
2023-02-25T03:16:49.927Z,99560.46
2023-02-25T03:19:30.218Z,99564.60
2023-02-25T03:22:01.212Z,99559.52
2023-02-25T03:24:35.062Z,99552.23
2023-02-25T03:27:21.741Z,99543.41
2023-02-25T03:29:57.715Z,99543.81
2023-02-25T03:32:27.098Z,99536.05
2023-02-25T03:34:58.147Z,99539.15
2023-02-25T03:37:28.799Z,99543.10
2023-02-25T03:39:59.010Z,99543.98
2023-02-25T03:42:32.996Z,99540.77
2023-02-25T03:45:02.855Z,99534.64
2023-02-25T03:47:33.177Z,99533.62
2023-02-25T03:50:04.417Z,99536.67
2023-02-25T03:52:33.110Z,99539.06
2023-02-25T03:55:05.417Z,99531.27
2023-02-25T03:57:39.038Z,99530.73
2023-02-25T04:00:17.883Z,99524.48
2023-02-25T04:02:47.899Z,99519.55
2023-02-25T04:05:17.170Z,99513.61
2023-02-25T04:07:47.378Z,99511.40
2023-02-25T04:10:16.841Z,99509.55
2023-02-25T04:12:47.116Z,99506.36
2023-02-25T04:15:15.491Z,99503.67
2023-02-25T04:17:45.900Z,99495.70
2023-02-25T04:20:17.629Z,99487.20
2023-02-25T04:22:45.985Z,99485.52
2023-02-25T04:25:17.447Z,99480.95
2023-02-25T04:27:46.176Z,99482.84
2023-02-25T04:30:15.126Z,99484.73
2023-02-25T04:32:44.332Z,99482.05
2023-02-25T04:35:16.113Z,99481.58
2023-02-25T04:37:44.465Z,99481.79
2023-02-25T04:40:19.272Z,99481.15
2023-02-25T04:42:52.305Z,99476.09
2023-02-25T04:45:27.006Z,99473.38
2023-02-25T04:47:57.936Z,99469.15
2023-02-25T04:50:26.402Z,99468.15
2023-02-25T04:52:55.467Z,99461.52
2023-02-25T04:55:23.865Z,99461.21
2023-02-25T04:57:53.612Z,99457.14
2023-02-25T05:00:24.380Z,99456.66
2023-02-25T05:02:52.792Z,99460.27
2023-02-25T05:05:21.808Z,99461.34
2023-02-25T05:07:50.096Z,99468.40
2023-02-25T05:10:19.782Z,99470.18
2023-02-25T05:12:48.495Z,99476.58
2023-02-25T05:15:21.184Z,99474.46
2023-02-25T05:17:52.565Z,99470.29
2023-02-25T05:20:20.934Z,99466.97
2023-02-25T05:22:49.338Z,99465.98
2023-02-25T05:25:18.103Z,99473.32
2023-02-25T05:27:46.499Z,99473.34
2023-02-25T05:30:15.380Z,99468.06
2023-02-25T05:32:43.887Z,99467.40
2023-02-25T05:35:12.800Z,99467.73
2023-02-25T05:37:41.333Z,99460.08
2023-02-25T05:40:14.321Z,99460.25
2023-02-25T05:42:42.943Z,99460.27
2023-02-25T05:45:11.565Z,99463.15
2023-02-25T05:47:40.547Z,99458.90
2023-02-25T05:50:09.706Z,99457.20
2023-02-25T05:52:39.343Z,99458.23
2023-02-25T05:55:09.633Z,99453.81
2023-02-25T05:57:38.198Z,99451.95
2023-02-25T06:00:10.191Z,99451.10
2023-02-25T06:02:44.614Z,99452.13
2023-02-25T06:05:13.230Z,99449.39
2023-02-25T06:07:44.229Z,99445.99
2023-02-25T06:10:12.684Z,99452.13
2023-02-25T06:12:46.675Z,99446.20
2023-02-25T06:15:15.427Z,99458.14
2023-02-25T06:17:43.941Z,99460.05
2023-02-25T06:20:16.692Z,99460.74
2023-02-25T06:22:45.252Z,99453.08
2023-02-25T06:25:13.676Z,99451.39
2023-02-25T06:27:44.145Z,99457.20
2023-02-25T06:30:13.134Z,99450.56
2023-02-25T06:32:42.279Z,99440.33
2023-02-25T06:35:11.109Z,99445.28
2023-02-25T06:37:43.162Z,99447.18
2023-02-25T06:40:15.760Z,99441.08
2023-02-25T06:42:44.140Z,99438.55
2023-02-25T06:45:12.481Z,99439.55
2023-02-25T06:47:41.048Z,99434.63
2023-02-25T06:50:10.121Z,99438.19
2023-02-25T06:52:38.854Z,99435.09
2023-02-25T06:55:07.661Z,99435.92
2023-02-25T06:57:37.190Z,99426.02
2023-02-25T07:00:07.510Z,99429.41
2023-02-25T07:02:35.910Z,99418.69
2023-02-25T07:05:05.826Z,99415.77
2023-02-25T07:07:35.825Z,99423.63
2023-02-25T07:10:05.065Z,99416.65
2023-02-25T07:12:38.176Z,99420.76
2023-02-25T07:15:08.409Z,99411.23
2023-02-25T07:17:37.823Z,99413.95
2023-02-25T07:20:09.361Z,99408.88
2023-02-25T07:22:38.133Z,99409.39
2023-02-25T07:25:11.974Z,99403.61
2023-02-25T07:27:44.494Z,99403.80
2023-02-25T07:30:18.472Z,99400.42
2023-02-25T07:32:47.172Z,99398.06
2023-02-25T07:35:16.867Z,99390.24
2023-02-25T07:37:45.187Z,99395.19
2023-02-25T07:40:17.052Z,99399.30
2023-02-25T07:42:45.904Z,99398.48
2023-02-25T07:45:14.509Z,99396.41
2023-02-25T07:47:42.869Z,99391.98
2023-02-25T07:50:13.109Z,99381.77
2023-02-25T07:52:43.452Z,99387.74
2023-02-25T07:55:11.998Z,99380.64
2023-02-25T07:57:41.320Z,99378.31
2023-02-25T08:00:10.612Z,99376.30
2023-02-25T08:02:44.203Z,99374.62
2023-02-25T08:05:12.832Z,99373.60
2023-02-25T08:07:45.323Z,99366.29
2023-02-25T08:10:14.454Z,99360.14
2023-02-25T08:12:44.606Z,99364.45
2023-02-25T08:15:16.131Z,99366.34
2023-02-25T08:17:44.774Z,99360.70
2023-02-25T08:20:14.224Z,99359.70
2023-02-25T08:22:42.723Z,99354.77
2023-02-25T08:25:11.244Z,99354.95
2023-02-25T08:27:40.561Z,99347.81
2023-02-25T08:30:13.204Z,99351.08
2023-02-25T08:32:43.155Z,99354.36
2023-02-25T08:35:16.115Z,99342.09
2023-02-25T08:37:48.533Z,99335.45
2023-02-25T08:40:19.859Z,99342.49
2023-02-25T08:42:48.898Z,99337.89
2023-02-25T08:45:17.706Z,99333.97
2023-02-25T08:47:47.461Z,99325.41
2023-02-25T08:50:17.520Z,99326.91
2023-02-25T08:52:48.076Z,99328.94
2023-02-25T08:55:16.848Z,99326.16
2023-02-25T08:57:46.129Z,99325.11
2023-02-25T09:00:17.795Z,99325.06
2023-02-25T09:02:48.340Z,99322.64
2023-02-25T09:05:18.950Z,99309.94
2023-02-25T09:07:48.866Z,99316.59
2023-02-25T09:10:18.990Z,99312.13
2023-02-25T09:12:47.703Z,99313.31
2023-02-25T09:15:21.991Z,99308.16
2023-02-25T09:17:53.317Z,99308.48
2023-02-25T09:20:21.859Z,99301.27
2023-02-25T09:22:50.594Z,99299.48
2023-02-25T09:25:19.011Z,99302.37
2023-02-25T09:27:50.357Z,99293.85
2023-02-25T09:30:19.051Z,99291.41
2023-02-25T09:32:50.220Z,99285.27
2023-02-25T09:35:18.905Z,99275.89
2023-02-25T09:37:47.244Z,99271.98
2023-02-25T09:40:18.310Z,99265.13
2023-02-25T09:43:03.734Z,99262.38
2023-02-25T09:45:33.748Z,99258.80
2023-02-25T09:48:06.586Z,99253.77
2023-02-25T09:50:43.890Z,99247.43
2023-02-25T09:53:34.041Z,99244.41
2023-02-25T09:56:03.211Z,99240.95
2023-02-25T09:58:37.419Z,99243.63
2023-02-25T10:01:19.209Z,99236.66
2023-02-25T10:03:53.772Z,99228.20
2023-02-25T10:06:39.685Z,99225.75
2023-02-25T10:09:50.808Z,99209.92
2023-02-25T10:12:28.525Z,99208.29
2023-02-25T10:15:15.010Z,99207.67
2023-02-25T10:18:11.986Z,99201.61
2023-02-25T10:20:40.321Z,99199.48
2023-02-25T10:23:26.966Z,99198.52
2023-02-25T10:26:01.188Z,99190.53
2023-02-25T10:28:30.272Z,99194.14
2023-02-25T10:31:16.376Z,99185.02
2023-02-25T10:33:47.155Z,99174.25
2023-02-25T10:36:34.128Z,99177.97
2023-02-25T10:39:02.407Z,99173.02
2023-02-25T10:41:30.785Z,99173.75
2023-02-25T10:43:59.069Z,99175.44
2023-02-25T10:46:41.926Z,99164.50
2023-02-25T10:49:21.808Z,99164.23
2023-02-25T10:52:03.507Z,99159.30
2023-02-25T10:54:33.571Z,99151.67
2023-02-25T10:57:14.333Z,99151.70
2023-02-25T10:59:43.632Z,99155.05
2023-02-25T11:02:23.675Z,99155.34
2023-02-25T11:04:52.780Z,99151.92
2023-02-25T11:07:43.473Z,99151.95
2023-02-25T11:10:19.780Z,99149.69
2023-02-25T11:12:53.971Z,99148.50
2023-02-25T11:15:38.160Z,99144.86
2023-02-25T11:18:12.418Z,99142.88
2023-02-25T11:20:42.069Z,99140.48
2023-02-25T11:23:18.085Z,99134.30
2023-02-25T11:25:46.798Z,99130.36
2023-02-25T11:28:39.968Z,99132.27
2023-02-25T11:31:13.180Z,99124.08
2023-02-25T11:33:44.128Z,99118.99
2023-02-25T11:36:13.633Z,99116.95
2023-02-25T11:38:42.683Z,99125.13
2023-02-25T11:41:22.350Z,99109.45
2023-02-25T11:43:51.535Z,99106.80
2023-02-25T11:46:25.446Z,99097.58
2023-02-25T11:48:56.876Z,99089.91
2023-02-25T11:51:28.990Z,99088.86
2023-02-25T11:54:21.940Z,99091.98
2023-02-25T11:56:57.857Z,99081.95
2023-02-25T11:59:39.866Z,99080.14
2023-02-25T12:02:20.869Z,99081.79
2023-02-25T12:04:49.746Z,99080.65
2023-02-25T12:07:51.155Z,99081.66
2023-02-25T12:10:24.512Z,99081.59
2023-02-25T12:13:07.918Z,99080.58
2023-02-25T12:15:55.561Z,99079.11
2023-02-25T12:18:27.792Z,99075.34
2023-02-25T12:21:03.915Z,99077.02
2023-02-25T12:23:43.148Z,99067.69
2023-02-25T12:26:14.401Z,99062.28
2023-02-25T12:28:57.960Z,99061.29
2023-02-25T12:31:39.427Z,99055.36
2023-02-25T12:34:11.524Z,99056.48
2023-02-25T12:36:50.904Z,99050.66
2023-02-25T12:39:23.304Z,99048.20
2023-02-25T12:42:10.379Z,99046.14
2023-02-25T12:45:15.420Z,99044.17
2023-02-25T12:48:05.485Z,99039.39
2023-02-25T12:51:10.212Z,99034.67
2023-02-25T12:53:45.623Z,99040.98
2023-02-25T12:56:17.339Z,99040.70
2023-02-25T12:59:11.231Z,99040.81
2023-02-25T13:01:52.060Z,99039.02
2023-02-25T13:04:32.479Z,99036.91
2023-02-25T13:07:06.629Z,99040.26
2023-02-25T13:10:23.916Z,99039.30
2023-02-25T13:12:54.045Z,99034.06
2023-02-25T13:15:23.627Z,99028.83
2023-02-25T13:18:16.950Z,99016.75
2023-02-25T13:20:57.505Z,99007.53
2023-02-25T13:23:40.769Z,99005.77
2023-02-25T13:26:59.832Z,99000.21
2023-02-25T13:29:43.267Z,99001.23
2023-02-25T13:32:29.453Z,99006.52
2023-02-25T13:35:20.069Z,99011.77
2023-02-25T13:37:52.730Z,99015.75
2023-02-25T13:40:39.912Z,99010.83
2023-02-25T13:43:23.496Z,99010.39
2023-02-25T13:46:04.192Z,99008.19
2023-02-25T13:48:39.454Z,99003.05
2023-02-25T13:51:08.195Z,98990.14
2023-02-25T13:53:54.744Z,98988.47
2023-02-25T13:56:38.211Z,98987.84
2023-02-25T13:59:40.785Z,98990.26
2023-02-25T14:02:47.313Z,98991.48
2023-02-25T14:05:23.938Z,98995.10
2023-02-25T14:08:08.434Z,98989.66
2023-02-25T14:10:45.536Z,98987.17
2023-02-25T14:13:27.104Z,98985.58
2023-02-25T14:15:59.892Z,98984.81
2023-02-25T14:18:45.359Z,98977.27
2023-02-25T14:21:40.338Z,98982.56
2023-02-25T14:24:46.934Z,98984.16
2023-02-25T14:27:22.540Z,98982.98
2023-02-25T14:30:27.420Z,98980.36
2023-02-25T14:32:58.753Z,98980.14
2023-02-25T14:36:04.933Z,98980.76
2023-02-25T14:38:46.633Z,98980.05
2023-02-25T14:41:34.520Z,98977.42
2023-02-25T14:44:06.635Z,98977.87
2023-02-25T14:46:40.688Z,98972.20
2023-02-25T14:49:21.230Z,98972.66
2023-02-25T14:52:35.946Z,98975.09
2023-02-25T14:55:14.410Z,98969.45
2023-02-25T14:57:52.588Z,98970.40
2023-02-25T15:00:41.229Z,98969.42
2023-02-25T15:03:18.816Z,98979.33
2023-02-25T15:06:24.978Z,98972.98
2023-02-25T15:09:14.704Z,98970.39
2023-02-25T15:11:50.895Z,98978.77
2023-02-25T15:14:53.202Z,98982.33
2023-02-25T15:17:50.519Z,98989.29
2023-02-25T15:20:40.267Z,98986.44
2023-02-25T15:23:19.939Z,98978.20
2023-02-25T15:26:19.807Z,98977.16
2023-02-25T15:28:53.658Z,98982.66
2023-02-25T15:31:31.469Z,98976.64
2023-02-25T15:34:21.799Z,98986.28
2023-02-25T15:36:52.149Z,98975.27
2023-02-25T15:39:42.120Z,98973.27
2023-02-25T15:42:12.262Z,98961.60
2023-02-25T15:44:42.269Z,98960.60
2023-02-25T15:47:24.316Z,98964.98
2023-02-25T15:49:53.341Z,98955.75
2023-02-25T15:52:58.842Z,98949.04
2023-02-25T15:55:32.072Z,98958.27
2023-02-25T15:58:00.689Z,98960.08
2023-02-25T16:01:28.004Z,98955.91
2023-02-25T16:03:56.644Z,98957.55
2023-02-25T16:06:32.431Z,98966.67
2023-02-25T16:09:10.811Z,98964.42
2023-02-25T16:11:51.784Z,98976.09
2023-02-25T16:14:23.079Z,98974.64
2023-02-25T16:16:58.414Z,98981.65
2023-02-25T16:19:33.625Z,98971.30
2023-02-25T16:22:23.308Z,98972.52
2023-02-25T16:24:56.325Z,98973.77
2023-02-25T16:27:35.012Z,98969.84
2023-02-25T16:30:23.083Z,98968.54
2023-02-25T16:33:14.530Z,98972.09
2023-02-25T16:36:07.779Z,98961.38
2023-02-25T16:38:45.721Z,98958.09
2023-02-25T16:41:14.832Z,98955.29
2023-02-25T16:43:43.783Z,98953.89
2023-02-25T16:46:15.521Z,98957.49
2023-02-25T16:48:53.817Z,98954.02
2023-02-25T16:51:32.161Z,98954.69
2023-02-25T16:54:05.567Z,98944.13
2023-02-25T16:56:34.736Z,98945.98
2023-02-25T16:59:05.989Z,98941.84
2023-02-25T17:01:35.606Z,98947.14
2023-02-25T17:04:21.876Z,98953.14
2023-02-25T17:07:18.061Z,98949.16
2023-02-25T17:09:49.547Z,98960.84
2023-02-25T17:12:45.770Z,98948.12
2023-02-25T17:15:24.176Z,98948.95
2023-02-25T17:18:13.233Z,98959.39
2023-02-25T17:20:41.583Z,98947.31
2023-02-25T17:23:11.297Z,98942.91
2023-02-25T17:25:42.156Z,98942.96
2023-02-25T17:28:35.901Z,98939.05
2023-02-25T17:31:15.838Z,98939.11
2023-02-25T17:33:49.659Z,98945.59
2023-02-25T17:36:25.530Z,98943.52
2023-02-25T17:38:56.946Z,98949.19
2023-02-25T17:41:26.138Z,98948.65
2023-02-25T17:43:54.542Z,98948.64
2023-02-25T17:46:36.531Z,98958.98
2023-02-25T17:49:28.609Z,98950.07
2023-02-25T17:52:01.301Z,98945.23
2023-02-25T17:54:31.592Z,98940.39
2023-02-25T17:57:09.034Z,98944.85
2023-02-25T17:59:39.626Z,98948.13
2023-02-25T18:02:30.283Z,98936.63
2023-02-25T18:05:11.307Z,98938.73
2023-02-25T18:07:42.431Z,98940.36
2023-02-25T18:10:27.600Z,98948.55
2023-02-25T18:12:56.217Z,98949.52
2023-02-25T18:15:26.715Z,98944.52
2023-02-25T18:17:56.187Z,98951.89
2023-02-25T18:20:29.012Z,98946.21
2023-02-25T18:23:05.355Z,98951.68
2023-02-25T18:25:38.631Z,98952.30
2023-02-25T18:28:13.890Z,98959.42
2023-02-25T18:30:43.437Z,98955.34
2023-02-25T18:33:12.599Z,98951.41
2023-02-25T18:35:42.940Z,98956.06
2023-02-25T18:38:17.590Z,98951.63
2023-02-25T18:40:46.397Z,98945.34
2023-02-25T18:43:19.937Z,98938.50
2023-02-25T18:45:48.593Z,98943.50
2023-02-25T18:48:19.314Z,98934.38
2023-02-25T18:50:47.790Z,98926.43
2023-02-25T18:53:21.528Z,98919.85
2023-02-25T18:55:51.853Z,98914.96
2023-02-25T18:58:24.998Z,98915.35
2023-02-25T19:00:56.099Z,98912.69
2023-02-25T19:03:34.305Z,98907.70
2023-02-25T19:06:03.625Z,98909.61
2023-02-25T19:08:36.040Z,98913.07
2023-02-25T19:11:04.636Z,98919.45
2023-02-25T19:13:37.742Z,98918.41
2023-02-25T19:16:07.041Z,98923.48
2023-02-25T19:18:36.963Z,98922.17
2023-02-25T19:21:07.038Z,98922.20
2023-02-25T19:23:35.584Z,98922.64
2023-02-25T19:26:05.079Z,98922.89
2023-02-25T19:28:35.378Z,98926.35
2023-02-25T19:31:06.039Z,98928.77
2023-02-25T19:33:35.390Z,98930.00
2023-02-25T19:36:04.202Z,98921.59
2023-02-25T19:38:32.950Z,98924.52
2023-02-25T19:41:03.072Z,98917.49
2023-02-25T19:43:32.286Z,98921.27
2023-02-25T19:46:01.016Z,98911.45
2023-02-25T19:48:29.649Z,98909.34
2023-02-25T19:50:57.964Z,98908.28
2023-02-25T19:53:26.393Z,98906.35
2023-02-25T19:55:57.598Z,98914.23
2023-02-25T19:58:26.368Z,98918.64
2023-02-25T20:01:02.617Z,98919.91
2023-02-25T20:03:31.282Z,98919.31
2023-02-25T20:06:05.949Z,98927.65
2023-02-25T20:08:36.956Z,98934.57
2023-02-25T20:11:09.998Z,98936.73
2023-02-25T20:13:38.778Z,98933.38
2023-02-25T20:16:07.713Z,98945.94
2023-02-25T20:18:36.396Z,98941.60
2023-02-25T20:21:05.534Z,98942.65
2023-02-25T20:23:34.469Z,98938.21
2023-02-25T20:26:07.231Z,98934.17
2023-02-25T20:28:36.275Z,98931.40
2023-02-25T20:31:11.401Z,98931.70
2023-02-25T20:33:40.269Z,98930.30
2023-02-25T20:36:41.491Z,98931.50
2023-02-25T20:39:27.700Z,98925.66
2023-02-25T20:41:56.326Z,98926.86
2023-02-25T20:44:24.745Z,98925.63
2023-02-25T20:46:57.725Z,98927.88
2023-02-25T20:49:27.106Z,98935.88
2023-02-25T20:51:59.416Z,98935.44
2023-02-25T20:54:27.973Z,98928.38
2023-02-25T20:57:02.665Z,98927.48
2023-02-25T20:59:31.374Z,98914.22
2023-02-25T21:02:01.889Z,98908.45
2023-02-25T21:04:30.564Z,98904.41
2023-02-25T21:06:59.298Z,98901.44
2023-02-25T21:09:33.614Z,98918.64
2023-02-25T21:12:04.090Z,98919.15
2023-02-25T21:14:32.574Z,98929.66
2023-02-25T21:17:02.497Z,98931.20
2023-02-25T21:19:31.102Z,98931.08
2023-02-25T21:22:04.095Z,98940.07
2023-02-25T21:24:34.873Z,98948.69
2023-02-25T21:27:03.642Z,98940.80
2023-02-25T21:29:34.153Z,98954.46
2023-02-25T21:32:02.588Z,98951.25
2023-02-25T21:34:33.053Z,98954.80
2023-02-25T21:37:01.355Z,98953.89
2023-02-25T21:39:29.762Z,98956.46
2023-02-25T21:41:58.605Z,98953.52
2023-02-25T21:44:30.891Z,98959.17
2023-02-25T21:46:59.399Z,98963.15
2023-02-25T21:49:31.478Z,98960.02
2023-02-25T21:52:00.524Z,98965.69
2023-02-25T21:54:28.801Z,98964.47
2023-02-25T21:56:57.091Z,98957.72
2023-02-25T21:59:27.188Z,98963.02
2023-02-25T22:01:55.583Z,98967.84
2023-02-25T22:04:24.120Z,98969.69
2023-02-25T22:06:53.900Z,98974.67
2023-02-25T22:09:23.063Z,98970.88
2023-02-25T22:11:51.852Z,98973.40
2023-02-25T22:14:26.389Z,98972.36
2023-02-25T22:16:54.769Z,98968.90
2023-02-25T22:19:23.323Z,98973.55
2023-02-25T22:21:51.821Z,98976.45
2023-02-25T22:24:20.382Z,98978.33
2023-02-25T22:26:52.251Z,98978.69
2023-02-25T22:29:20.752Z,98974.73
2023-02-25T22:31:49.838Z,98969.55
2023-02-25T22:34:18.318Z,98968.33
2023-02-25T22:36:48.017Z,98981.59
2023-02-25T22:39:16.597Z,98986.42
2023-02-25T22:41:45.140Z,98991.96
2023-02-25T22:44:22.045Z,98988.27
2023-02-25T22:46:51.427Z,98983.90
2023-02-25T22:49:20.130Z,98982.44
2023-02-25T22:51:48.684Z,98987.14
2023-02-25T22:54:19.159Z,98987.40
2023-02-25T22:56:49.920Z,98986.59
2023-02-25T22:59:18.422Z,98989.68
2023-02-25T23:01:46.900Z,98995.33
2023-02-25T23:04:16.559Z,98986.35
2023-02-25T23:06:45.854Z,98992.54
2023-02-25T23:09:14.822Z,99000.95
2023-02-25T23:11:43.778Z,98999.75
2023-02-25T23:14:12.729Z,99001.99
2023-02-25T23:16:43.381Z,99002.39
2023-02-25T23:19:14.421Z,99006.77
2023-02-25T23:21:43.539Z,99007.22
2023-02-25T23:24:19.785Z,99006.70
2023-02-25T23:26:50.876Z,99005.52
2023-02-25T23:29:19.681Z,99004.10
2023-02-25T23:31:49.316Z,99010.16
2023-02-25T23:34:20.344Z,99007.56
2023-02-25T23:36:50.220Z,99003.73
2023-02-25T23:39:18.936Z,99005.91
2023-02-25T23:44:23.582Z,99013.00
2023-02-25T23:46:54.982Z,99014.80
2023-02-25T23:49:23.458Z,99016.58
2023-02-25T23:51:52.873Z,99015.42
2023-02-25T23:54:22.242Z,99015.97
2023-02-25T23:56:51.682Z,99023.92
2023-02-25T23:59:22.600Z,99024.80
